Time;durP1;ratioP1;P1;durP2;ratioP2;P2;SDS_P1;SDS_P2;PMS_P1;PMS_P2;Temp;Humidity;BMP_temperature;BMP_pressure;BME280_temperature;BME280_humidity;BME280_pressure;Samples;Min_cycle;Max_cycle;Signal;HPM_P1;HPM_P2
2022/01/16 00:00:54;;;;;;;1999.90;999.90;;;;;;;-2.03;61.82;101922.19;5006212;28;96861;-66
2022/01/16 00:06:13;;;;;;;1999.90;999.90;;;;;;;-2.06;62.26;101928.81;4994119;28;99916;-71
2022/01/16 00:08:40;;;;;;;1999.90;999.90;;;;;;;-2.12;62.17;101928.25;5004447;28;96934;-70
2022/01/16 00:11:08;;;;;;;1999.90;999.90;;;;;;;-2.18;61.83;101927.69;5003856;28;97228;-71
2022/01/16 00:13:36;;;;;;;1999.90;999.90;;;;;;;-2.21;62.13;101930.00;5000839;28;100191;-71
2022/01/16 00:16:05;;;;;;;1999.90;999.90;;;;;;;-2.22;62.01;101917.78;5005077;28;100692;-71
2022/01/16 00:18:42;;;;;;;1999.90;999.90;;;;;;;-2.22;62.10;101900.44;5005638;28;97090;-70
2022/01/16 00:21:10;;;;;;;1999.90;999.90;;;;;;;-2.22;62.78;101876.06;5005725;28;97141;-70
2022/01/16 00:23:37;;;;;;;1999.90;999.90;;;;;;;-2.21;62.36;101898.72;5004394;28;97673;-71
2022/01/16 00:26:05;;;;;;;1999.90;999.90;;;;;;;-2.25;62.52;101912.25;5006430;28;97753;-70
2022/01/16 00:28:33;;;;;;;1999.90;999.90;;;;;;;-2.25;62.44;101918.41;5004788;28;96819;-70
2022/01/16 00:31:01;;;;;;;1999.90;999.90;;;;;;;-2.29;62.25;101921.50;5001573;28;96780;-70
2022/01/16 00:33:30;;;;;;;1999.90;999.90;;;;;;;-2.37;62.40;101909.47;5006390;28;99349;-71
2022/01/16 00:35:57;;;;;;;1999.90;999.90;;;;;;;-2.39;62.59;101910.09;5017279;27;99627;-70
2022/01/16 00:38:25;;;;;;;1999.90;999.90;;;;;;;-2.40;62.31;101911.78;4999000;28;99158;-70
2022/01/16 00:40:52;;;;;;;1999.90;999.90;;;;;;;-2.40;62.63;101917.00;5008729;28;96899;-70
2022/01/16 00:43:20;;;;;;;1999.90;999.90;;;;;;;-2.42;62.28;101899.41;5007360;28;98097;-70
2022/01/16 00:45:48;;;;;;;1999.90;999.90;;;;;;;-2.43;63.16;101882.84;5009540;28;96991;-70
2022/01/16 00:48:16;;;;;;;1999.90;999.90;;;;;;;-2.42;63.14;101873.34;5011158;28;96808;-71
2022/01/16 00:50:45;;;;;;;1999.90;999.90;;;;;;;-2.41;62.60;101865.66;5010575;28;97237;-69
2022/01/16 00:53:12;;;;;;;1999.90;999.90;;;;;;;-2.41;63.07;101850.03;5006356;28;96922;-69
2022/01/16 00:55:41;;;;;;;1999.90;999.90;;;;;;;-2.38;62.81;101862.44;5002643;28;98465;-70
2022/01/16 00:58:08;;;;;;;1999.90;999.90;;;;;;;-2.41;62.60;101873.50;5003532;28;97009;-71
2022/01/16 01:00:36;;;;;;;1999.90;999.90;;;;;;;-2.40;62.88;101872.69;5004832;28;96969;-69
2022/01/16 01:03:06;;;;;;;1999.90;999.90;;;;;;;-2.43;62.38;101854.19;5003200;28;100949;-70
2022/01/16 01:05:34;;;;;;;1999.90;999.90;;;;;;;-2.40;62.28;101875.31;5003916;28;99377;-70
2022/01/16 01:08:04;;;;;;;1999.90;999.90;;;;;;;-2.43;62.53;101862.00;5006765;28;97109;-70
2022/01/16 01:10:34;;;;;;;1999.90;999.90;;;;;;;-2.42;62.43;101869.06;5010812;28;97413;-70
2022/01/16 01:13:10;;;;;;;1999.90;999.90;;;;;;;-2.43;62.46;101837.63;5007739;28;97476;-70
2022/01/16 01:15:46;;;;;;;1999.90;999.90;;;;;;;-2.44;62.36;101836.75;5005735;28;100455;-70
2022/01/16 01:18:14;;;;;;;1999.90;999.90;;;;;;;-2.44;62.33;101836.75;5009634;28;97394;-71
2022/01/16 01:20:43;;;;;;;1999.90;999.90;;;;;;;-2.50;62.35;101827.44;5010527;28;97623;-71
2022/01/16 01:23:12;;;;;;;1999.90;999.90;;;;;;;-2.51;62.64;101844.75;5008432;28;97705;-69
2022/01/16 01:25:41;;;;;;;1999.90;999.90;;;;;;;-2.50;62.24;101838.78;5007991;28;98643;-71
2022/01/16 01:28:11;;;;;;;1999.90;999.90;;;;;;;-2.49;62.72;101840.59;5007040;28;97421;-72
2022/01/16 01:30:40;;;;;;;1999.90;999.90;;;;;;;-2.50;62.80;101841.41;5008332;28;96751;-69
2022/01/16 01:33:07;;;;;;;1999.90;999.90;;;;;;;-2.49;62.11;101848.41;5007920;28;97651;-71
2022/01/16 01:35:38;;;;;;;1999.90;999.90;;;;;;;-2.51;61.98;101838.66;5009370;28;96760;-70
2022/01/16 01:38:07;;;;;;;1999.90;999.90;;;;;;;-2.56;62.00;101833.03;5008379;28;97233;-70
2022/01/16 01:40:39;;;;;;;1999.90;999.90;;;;;;;-2.56;62.05;101826.91;5010061;28;96780;-71
2022/01/16 01:51:23;;;;;;;1999.90;999.90;;;;;;;-2.61;62.53;101730.09;5007925;28;97220;-71
2022/01/16 01:53:54;;;;;;;1999.90;999.90;;;;;;;-2.60;62.04;101728.41;5007444;28;97884;-70
2022/01/16 01:56:24;;;;;;;1999.90;999.90;;;;;;;-2.63;61.99;101755.09;5003019;28;98792;-70
2022/01/16 01:58:53;;;;;;;1999.90;999.90;;;;;;;-2.63;61.99;101759.38;4998964;28;96825;-70
2022/01/16 02:01:22;;;;;;;1999.90;999.90;;;;;;;-2.64;62.43;101753.28;5008037;28;97271;-73
2022/01/16 02:03:50;;;;;;;1999.90;999.90;;;;;;;-2.68;62.84;101761.59;5007639;28;99315;-69
2022/01/16 02:06:21;;;;;;;1999.90;999.90;;;;;;;-2.69;62.43;101748.44;5007287;28;97590;-70
2022/01/16 02:08:52;;;;;;;1999.90;999.90;;;;;;;-2.70;62.77;101763.16;5007424;28;96797;-71
2022/01/16 02:11:23;;;;;;;1999.90;999.90;;;;;;;-2.70;61.89;101757.94;5005533;28;97086;-71
2022/01/16 02:13:58;;;;;;;1999.90;999.90;;;;;;;-2.72;62.04;101767.31;5008944;28;97999;-70
2022/01/16 02:34:29;;;;;;;1999.90;999.90;;;;;;;-2.79;62.62;101741.50;5002262;28;98512;-70
2022/01/16 02:36:20;;;;;;;1999.90;999.90;;;;;;;-2.79;62.59;101738.88;4989765;28;99253;-70
2022/01/16 02:38:49;;;;;;;1999.90;999.90;;;;;;;-2.83;62.74;101739.38;5007677;28;97604;-70
2022/01/16 02:41:17;;;;;;;1999.90;999.90;;;;;;;-2.84;62.93;101732.38;5006982;28;96913;-71
2022/01/16 02:43:49;;;;;;;1999.90;999.90;;;;;;;-2.87;62.22;101733.00;5008217;28;99643;-71
2022/01/16 02:49:03;;;;;;;1999.90;999.90;;;;;;;-2.88;62.87;101727.66;5001993;28;96891;-70
2022/01/16 02:51:31;;;;;;;1999.90;999.90;;;;;;;-2.86;62.80;101719.22;5002854;28;97811;-70
2022/01/16 02:54:01;;;;;;;1999.90;999.90;;;;;;;-2.84;62.34;101711.53;5006734;28;98186;-70
2022/01/16 02:56:28;;;;;;;1999.90;999.90;;;;;;;-2.87;62.42;101695.59;5003836;28;99745;-70
2022/01/16 02:58:56;;;;;;;1999.90;999.90;;;;;;;-2.84;62.73;101706.31;4984137;28;99755;-71
2022/01/16 03:01:24;;;;;;;1999.90;999.90;;;;;;;-2.86;62.11;101721.81;5004754;28;97040;-70
2022/01/16 03:03:55;;;;;;;1999.90;999.90;;;;;;;-2.86;62.56;101705.28;4997478;28;98194;-70
2022/01/16 03:06:27;;;;;;;1999.90;999.90;;;;;;;-2.88;62.09;101706.81;5002804;28;98855;-70
2022/01/16 03:08:55;;;;;;;1999.90;999.90;;;;;;;-2.88;62.60;101704.22;5002826;28;98863;-71
2022/01/16 03:11:30;;;;;;;1999.90;999.90;;;;;;;-2.89;62.20;101699.75;5009445;28;97363;-70
2022/01/16 03:13:58;;;;;;;1999.90;999.90;;;;;;;-2.91;62.34;101688.34;5004379;28;99324;-70
2022/01/16 03:16:26;;;;;;;1999.90;999.90;;;;;;;-2.91;61.85;101680.53;4998067;28;98039;-70
2022/01/16 03:21:54;;;;;;;1999.90;999.90;;;;;;;-2.97;62.50;101662.66;5001937;28;97111;-70
2022/01/16 03:24:24;;;;;;;1999.90;999.90;;;;;;;-3.00;62.47;101666.66;5006211;28;96729;-70
2022/01/16 03:26:55;;;;;;;1999.90;999.90;;;;;;;-3.02;62.11;101666.53;5007032;28;100017;-70
2022/01/16 03:29:23;;;;;;;1999.90;999.90;;;;;;;-3.03;62.64;101658.59;5008852;28;97611;-71
2022/01/16 03:31:51;;;;;;;1999.90;999.90;;;;;;;-3.04;62.38;101655.06;4990598;28;98753;-72
2022/01/16 03:34:19;;;;;;;1999.90;999.90;;;;;;;-3.05;62.37;101647.13;5006897;28;96684;-71
2022/01/16 03:36:47;;;;;;;1999.90;999.90;;;;;;;-3.08;62.16;101649.47;5007592;28;97798;-71
2022/01/16 03:39:14;;;;;;;1999.90;999.90;;;;;;;-3.08;62.79;101652.06;5006317;28;97966;-71
2022/01/16 03:41:42;;;;;;;1999.90;999.90;;;;;;;-3.07;62.47;101640.84;5007303;28;97473;-70
2022/01/16 03:44:11;;;;;;;1999.90;999.90;;;;;;;-3.08;62.46;101636.44;5004118;28;99346;-72
2022/01/16 03:46:41;;;;;;;1999.90;999.90;;;;;;;-3.10;62.66;101618.09;5002385;28;99402;-71
2022/01/16 03:49:11;;;;;;;1999.90;999.90;;;;;;;-3.10;62.83;101622.38;5007371;28;97687;-72
2022/01/16 03:51:40;;;;;;;1999.90;999.90;;;;;;;-3.10;62.62;101614.56;5008357;28;97130;-70
2022/01/16 03:54:09;;;;;;;1999.90;999.90;;;;;;;-3.11;62.66;101604.94;5004130;28;96804;-71
2022/01/16 03:56:37;;;;;;;1999.90;999.90;;;;;;;-3.15;62.68;101603.72;5003723;28;98909;-70
2022/01/16 03:59:05;;;;;;;1999.90;999.90;;;;;;;-3.21;62.44;101597.09;5001624;28;100672;-71
2022/01/16 04:01:35;;;;;;;1999.90;999.90;;;;;;;-3.24;62.57;101602.91;5003265;28;97635;-70
2022/01/16 04:04:04;;;;;;;1999.90;999.90;;;;;;;-3.24;63.03;101602.03;5001953;28;98148;-70
2022/01/16 04:06:32;;;;;;;1999.90;999.90;;;;;;;-3.23;62.97;101606.44;5000251;28;100635;-69
2022/01/16 04:09:01;;;;;;;1999.90;999.90;;;;;;;-3.24;62.54;101602.91;5003937;28;96827;-72
2022/01/16 04:11:30;;;;;;;1999.90;999.90;;;;;;;-3.26;62.59;101608.78;5005930;28;97333;-71
2022/01/16 04:14:05;;;;;;;1999.90;999.90;;;;;;;-3.24;62.71;101609.84;5003552;28;96788;-70
2022/01/16 04:16:35;;;;;;;1999.90;999.90;;;;;;;-3.25;62.36;101597.59;5006798;28;99490;-70
2022/01/16 04:19:04;;;;;;;1999.90;999.90;;;;;;;-3.27;62.82;101599.13;5002537;28;98863;-70
2022/01/16 04:21:32;;;;;;;1999.90;999.90;;;;;;;-3.27;62.48;101601.75;5009258;28;96982;-70
2022/01/16 04:24:00;;;;;;;1999.90;999.90;;;;;;;-3.26;62.75;101600.97;5007952;28;97806;-72
2022/01/16 04:26:28;;;;;;;1999.90;999.90;;;;;;;-3.27;62.29;101601.75;5010074;28;98236;-70
2022/01/16 04:28:56;;;;;;;1999.90;999.90;;;;;;;-3.26;62.46;101599.31;5011790;28;99482;-71
2022/01/16 04:31:24;;;;;;;1999.90;999.90;;;;;;;-3.25;62.53;101595.91;5009245;28;97794;-70
2022/01/16 04:33:53;;;;;;;1999.90;999.90;;;;;;;-3.25;62.29;101602.78;5013510;28;97592;-71
2022/01/16 04:36:21;;;;;;;1999.90;999.90;;;;;;;-3.28;62.65;101599.94;5012179;28;97982;-71
2022/01/16 04:38:50;;;;;;;1999.90;999.90;;;;;;;-3.27;62.88;101596.53;5007641;28;97935;-72
2022/01/16 04:44:04;;;;;;;1999.90;999.90;;;;;;;-3.30;63.00;101594.59;5010906;28;97790;-71
2022/01/16 04:46:33;;;;;;;1999.90;999.90;;;;;;;-3.28;62.36;101597.31;5010194;28;97734;-70
2022/01/16 04:49:04;;;;;;;1999.90;999.90;;;;;;;-3.29;63.01;101592.88;5010045;28;99134;-71
2022/01/16 04:51:32;;;;;;;1999.90;999.90;;;;;;;-3.30;62.44;101591.06;5009576;28;96948;-71
2022/01/16 04:54:00;;;;;;;1999.90;999.90;;;;;;;-3.32;62.82;101596.16;5007138;28;96745;-70
2022/01/16 04:56:28;;;;;;;1999.90;999.90;;;;;;;-3.31;62.40;101597.06;5007080;28;98931;-73
2022/01/16 04:58:56;;;;;;;1999.90;999.90;;;;;;;-3.33;62.16;101588.19;5008204;28;98908;-70
2022/01/16 05:01:24;;;;;;;1999.90;999.90;;;;;;;-3.34;62.61;101583.75;5006975;28;96926;-70
2022/01/16 05:03:52;;;;;;;1999.90;999.90;;;;;;;-3.35;62.82;101581.94;5003424;28;98482;-70
2022/01/16 05:06:21;;;;;;;1999.90;999.90;;;;;;;-3.35;62.88;101584.56;5007702;28;97026;-71
2022/01/16 05:08:49;;;;;;;1999.90;999.90;;;;;;;-3.37;62.41;101576.63;5005719;28;98933;-70
2022/01/16 05:11:25;;;;;;;1999.90;999.90;;;;;;;-3.37;62.49;101576.63;5007367;28;97480;-70
2022/01/16 05:16:39;;;;;;;1999.90;999.90;;;;;;;-3.40;62.77;101576.31;5004568;28;97732;-70
2022/01/16 05:19:09;;;;;;;1999.90;999.90;;;;;;;-3.44;62.86;101582.03;5003587;28;99412;-70
2022/01/16 05:21:40;;;;;;;1999.90;999.90;;;;;;;-3.45;62.96;101572.41;5004801;28;98367;-72
2022/01/16 05:24:10;;;;;;;1999.90;999.90;;;;;;;-3.43;62.34;101576.06;5008614;28;97563;-71
2022/01/16 05:26:39;;;;;;;1999.90;999.90;;;;;;;-3.43;62.55;101582.94;5001115;28;101058;-72
2022/01/16 05:29:07;;;;;;;1999.90;999.90;;;;;;;-3.47;62.60;101573.03;4991741;28;99860;-72
2022/01/16 05:31:34;;;;;;;1999.90;999.90;;;;;;;-3.46;62.74;101572.28;5007318;28;96866;-71
2022/01/16 05:34:02;;;;;;;1999.90;999.90;;;;;;;-3.46;62.72;101572.28;5008300;28;96934;-71
2022/01/16 05:36:30;;;;;;;1999.90;999.90;;;;;;;-3.45;62.93;101574.09;5007436;28;99418;-72
2022/01/16 05:38:59;;;;;;;1999.90;999.90;;;;;;;-3.44;62.90;101568.13;5007151;28;99064;-71
2022/01/16 05:41:27;;;;;;;1999.90;999.90;;;;;;;-3.44;62.87;101555.13;5008016;28;97330;-71
2022/01/16 05:43:54;;;;;;;1999.90;999.90;;;;;;;-3.44;62.52;101555.13;5003425;28;98230;-73
2022/01/16 05:46:22;;;;;;;1999.90;999.90;;;;;;;-3.44;62.42;101560.31;5004611;28;99280;-73
2022/01/16 05:48:51;;;;;;;1999.90;999.90;;;;;;;-3.44;62.44;101556.00;5006832;28;99269;-72
2022/01/16 05:51:18;;;;;;;1999.90;999.90;;;;;;;-3.45;62.38;101558.47;5002422;28;98279;-73
2022/01/16 05:53:46;;;;;;;1999.90;999.90;;;;;;;-3.46;62.22;101565.41;5005180;28;96919;-70
2022/01/16 05:56:15;;;;;;;1999.90;999.90;;;;;;;-3.47;62.74;101567.84;5002384;28;99414;-72
2022/01/16 05:58:43;;;;;;;1999.90;999.90;;;;;;;-3.47;62.61;101568.75;5007423;28;97853;-72
2022/01/16 06:01:10;;;;;;;1999.90;999.90;;;;;;;-3.45;62.46;101568.88;5004390;28;96788;-72
2022/01/16 06:03:38;;;;;;;1999.90;999.90;;;;;;;-3.46;62.80;101573.19;5001812;28;96961;-72
2022/01/16 06:06:06;;;;;;;1999.90;999.90;;;;;;;-3.45;62.84;101579.28;5006387;28;97700;-73
2022/01/16 06:08:33;;;;;;;1999.90;999.90;;;;;;;-3.44;62.63;101586.34;5004652;28;97562;-72
2022/01/16 06:11:01;;;;;;;1999.90;999.90;;;;;;;-3.46;62.74;101578.41;5000070;28;97243;-73
2022/01/16 06:13:30;;;;;;;1999.90;999.90;;;;;;;-3.46;62.43;101580.09;5006428;28;96786;-71
2022/01/16 06:15:58;;;;;;;1999.90;999.90;;;;;;;-3.49;62.59;101582.38;5005891;28;99373;-73
2022/01/16 06:18:26;;;;;;;1999.90;999.90;;;;;;;-3.52;62.38;101583.03;5007054;28;97774;-72
2022/01/16 06:20:53;;;;;;;1999.90;999.90;;;;;;;-3.52;62.43;101576.91;4989512;28;96988;-71
2022/01/16 06:23:21;;;;;;;1999.90;999.90;;;;;;;-3.54;62.55;101569.00;5008750;28;96791;-72
2022/01/16 06:25:54;;;;;;;1999.90;999.90;;;;;;;-3.54;62.60;101571.59;5005893;28;98551;-72
2022/01/16 06:28:22;;;;;;;1999.90;999.90;;;;;;;-3.54;63.06;101565.47;5006742;28;98005;-73
2022/01/16 06:30:52;;;;;;;1999.90;999.90;;;;;;;-3.53;62.46;101575.09;5003540;28;97216;-72
2022/01/16 06:33:19;;;;;;;1999.90;999.90;;;;;;;-3.53;62.80;101572.50;5007857;28;97183;-71
2022/01/16 06:35:47;;;;;;;1999.90;999.90;;;;;;;-3.53;62.54;101570.78;4987560;28;99007;-71
2022/01/16 06:38:15;;;;;;;1999.90;999.90;;;;;;;-3.53;63.00;101581.19;4999766;28;99778;-72
2022/01/16 06:40:42;;;;;;;1999.90;999.90;;;;;;;-3.54;62.34;101588.88;4997720;28;96933;-73
2022/01/16 06:43:10;;;;;;;1999.90;999.90;;;;;;;-3.59;62.68;101584.97;4994018;28;97336;-73
2022/01/16 06:45:38;;;;;;;1999.90;999.90;;;;;;;-3.60;62.67;101591.84;4993887;28;99413;-71
2022/01/16 06:48:07;;;;;;;1999.90;999.90;;;;;;;-3.60;63.07;101583.16;4993995;28;99899;-72
2022/01/16 06:50:35;;;;;;;1999.90;999.90;;;;;;;-3.59;63.02;101588.47;4997106;28;96814;-71
2022/01/16 06:53:03;;;;;;;1999.90;999.90;;;;;;;-3.58;62.53;101586.75;4994226;28;96991;-72
2022/01/16 06:55:31;;;;;;;1999.90;999.90;;;;;;;-3.57;62.89;101589.53;4994990;28;97753;-70
2022/01/16 06:57:58;;;;;;;1999.90;999.90;;;;;;;-3.55;62.84;101594.88;4996479;28;99347;-72
2022/01/16 07:00:26;;;;;;;1999.90;999.90;;;;;;;-3.54;62.89;101596.69;4995320;28;98059;-72
2022/01/16 07:02:54;;;;;;;1999.90;999.90;;;;;;;-3.53;62.49;101585.50;4994676;28;97360;-71
2022/01/16 07:05:23;;;;;;;1999.90;999.90;;;;;;;-3.53;62.72;101575.09;4995432;28;97803;-72
2022/01/16 07:07:51;;;;;;;1999.90;999.90;;;;;;;-3.53;62.25;101570.78;5007280;28;96843;-71
2022/01/16 07:10:20;;;;;;;1999.90;999.90;;;;;;;-3.54;62.91;101568.06;4995203;28;96778;-72
2022/01/16 07:12:47;;;;;;;1999.90;999.90;;;;;;;-3.54;62.22;101566.38;4995924;28;97061;-72
2022/01/16 07:15:16;;;;;;;1999.90;999.90;;;;;;;-3.55;62.75;101564.56;4993313;28;97767;-72
2022/01/16 07:17:44;;;;;;;1999.90;999.90;;;;;;;-3.54;62.50;101560.25;4995641;28;98791;-72
2022/01/16 07:20:14;;;;;;;1999.90;999.90;;;;;;;-3.54;62.69;101553.38;4994633;28;97408;-71
2022/01/16 07:22:43;;;;;;;1999.90;999.90;;;;;;;-3.52;62.54;101563.91;4990900;28;98775;-73
2022/01/16 07:25:12;;;;;;;1999.90;999.90;;;;;;;-3.51;62.52;101568.34;4992681;28;98367;-69
2022/01/16 07:27:39;;;;;;;1999.90;999.90;;;;;;;-3.52;62.57;101576.91;4973090;28;101096;-71
2022/01/16 07:30:08;;;;;;;1999.90;999.90;;;;;;;-3.52;62.44;101584.72;4991724;28;97297;-71
2022/01/16 07:32:36;;;;;;;1999.90;999.90;;;;;;;-3.52;62.23;101584.72;4991662;28;97196;-73
2022/01/16 07:35:05;;;;;;;1999.90;999.90;;;;;;;-3.53;62.47;101591.59;4993517;28;98663;-69
2022/01/16 07:37:52;;;;;;;1999.90;999.90;;;;;;;-3.54;62.52;101584.59;4991809;28;99374;-72
2022/01/16 07:40:20;;;;;;;1999.90;999.90;;;;;;;-3.56;62.70;101595.63;4994650;28;97459;-70
2022/01/16 07:42:48;;;;;;;1999.90;999.90;;;;;;;-3.60;62.63;101603.94;4991581;28;98156;-72
2022/01/16 07:45:16;;;;;;;1999.90;999.90;;;;;;;-3.65;62.56;101600.91;4992167;28;98028;-70
2022/01/16 07:47:44;;;;;;;1999.90;999.90;;;;;;;-3.63;63.04;101593.25;4998924;28;98484;-73
2022/01/16 07:50:13;;;;;;;1999.90;999.90;;;;;;;-3.62;63.11;101595.09;4999203;28;96911;-70
2022/01/16 07:52:47;;;;;;;1999.90;999.90;;;;;;;-3.60;62.91;101593.53;4983558;28;97206;-71
2022/01/16 07:55:21;;;;;;;1999.90;999.90;;;;;;;-3.59;63.35;101605.75;5007976;28;99493;-72
2022/01/16 07:57:49;;;;;;;1999.90;999.90;;;;;;;-3.59;62.97;101595.34;5009594;28;99029;-71
2022/01/16 08:00:32;;;;;;;1999.90;999.90;;;;;;;-3.62;62.74;101598.59;5006135;28;98063;-70
2022/01/16 08:03:02;;;;;;;1999.90;999.90;;;;;;;-3.62;63.19;101600.28;4986603;28;97533;-72
2022/01/16 08:05:31;;;;;;;1999.90;999.90;;;;;;;-3.60;63.32;101599.63;5008020;28;99461;-71
2022/01/16 08:07:59;;;;;;;1999.90;999.90;;;;;;;-3.57;63.15;101589.53;5006004;28;99336;-72
2022/01/16 08:10:28;;;;;;;1999.90;999.90;;;;;;;-3.54;63.09;101592.41;5003347;28;97179;-71
2022/01/16 08:12:58;;;;;;;1999.90;999.90;;;;;;;-3.52;62.92;101598.66;4998342;28;97530;-70
2022/01/16 08:15:26;;;;;;;1999.90;999.90;;;;;;;-3.49;63.01;101609.31;4999144;28;99100;-71
2022/01/16 08:17:53;;;;;;;1999.90;999.90;;;;;;;-3.48;62.59;101595.56;4998018;28;97648;-71
2022/01/16 08:20:21;;;;;;;1999.90;999.90;;;;;;;-3.45;62.64;101597.50;5005832;28;97155;-72
2022/01/16 08:22:49;;;;;;;1999.90;999.90;;;;;;;-3.42;62.27;101600.41;5009094;28;96855;-71
2022/01/16 08:25:17;;;;;;;1999.90;999.90;;;;;;;-3.43;62.49;101594.28;5027406;27;99250;-71
2022/01/16 08:27:46;;;;;;;1999.90;999.90;;;;;;;-3.41;62.57;101589.19;5011744;28;99984;-71
2022/01/16 08:30:14;;;;;;;1999.90;999.90;;;;;;;-3.40;62.73;101585.84;5008142;28;98860;-71
2022/01/16 08:32:43;;;;;;;1999.90;999.90;;;;;;;-3.38;62.89;101590.38;5010761;28;98511;-71
2022/01/16 08:35:12;;;;;;;1999.90;999.90;;;;;;;-3.34;63.08;101583.75;5009158;28;97848;-72
2022/01/16 08:38:05;;;;;;;1999.90;999.90;;;;;;;-3.33;63.00;101581.28;5006436;28;98655;-71
2022/01/16 08:40:32;;;;;;;1999.90;999.90;;;;;;;-3.31;62.88;101584.06;5008389;28;97282;-72
2022/01/16 08:43:08;;;;;;;1999.90;999.90;;;;;;;-3.27;62.21;101586.13;5010295;28;96786;-71
2022/01/16 08:45:37;;;;;;;1999.90;999.90;;;;;;;-3.25;62.84;101579.38;5017439;28;97717;-71
2022/01/16 08:48:06;;;;;;;1999.90;999.90;;;;;;;-3.22;62.30;101579.66;4992513;28;100739;-74
2022/01/16 08:50:34;;;;;;;1999.90;999.90;;;;;;;-3.23;62.32;101589.16;5010638;28;97125;-72
2022/01/16 08:53:03;;;;;;;1999.90;999.90;;;;;;;-3.23;62.72;101598.63;5003647;28;98695;-71
2022/01/16 08:55:34;;;;;;;1999.90;999.90;;;;;;;-3.26;62.85;101601.91;5004899;28;99480;-70
2022/01/16 08:58:03;;;;;;;1999.90;999.90;;;;;;;-3.27;62.96;101605.25;4999385;28;97691;-72
2022/01/16 09:00:32;;;;;;;1999.90;999.90;;;;;;;-3.26;62.90;101596.69;5002582;28;96796;-71
2022/01/16 09:03:00;;;;;;;1999.90;999.90;;;;;;;-3.28;62.79;101597.31;4999695;28;96669;-73
2022/01/16 09:05:28;;;;;;;1999.90;999.90;;;;;;;-3.24;62.96;101589.03;4997761;28;98939;-73
2022/01/16 09:07:56;;;;;;;1999.90;999.90;;;;;;;-3.21;63.40;101594.47;5000290;28;97519;-73
2022/01/16 09:10:25;;;;;;;1999.90;999.90;;;;;;;-3.17;62.36;101588.78;4984579;28;97321;-71
2022/01/16 09:12:53;;;;;;;1999.90;999.90;;;;;;;-3.13;62.72;101591.78;5004243;27;96794;-72
2022/01/16 09:15:23;;;;;;;1999.90;999.90;;;;;;;-3.10;63.16;101588.53;4999344;28;99337;-71
2022/01/16 09:17:50;;;;;;;1999.90;999.90;;;;;;;-3.08;63.53;101579.19;4997856;28;97673;-73
2022/01/16 09:20:18;;;;;;;1999.90;999.90;;;;;;;-3.05;62.84;101580.34;5001619;28;97623;-72
2022/01/16 09:22:48;;;;;;;1999.90;999.90;;;;;;;-3.01;63.15;101586.75;5004727;28;97385;-72
2022/01/16 09:25:22;;;;;;;1999.90;999.90;;;;;;;-2.97;63.31;101594.03;4990063;28;100789;-72
2022/01/16 09:27:50;;;;;;;1999.90;999.90;;;;;;;-2.93;62.57;101591.81;5004330;28;100527;-72
2022/01/16 09:30:19;;;;;;;1999.90;999.90;;;;;;;-2.89;63.16;101595.59;5007034;28;96828;-73
2022/01/16 09:32:48;;;;;;;1999.90;999.90;;;;;;;-2.81;62.63;101599.81;5007277;28;97928;-72
2022/01/16 09:35:16;;;;;;;1999.90;999.90;;;;;;;-2.76;62.24;101606.31;5010029;28;97451;-72
2022/01/16 09:37:44;;;;;;;1999.90;999.90;;;;;;;-2.73;62.65;101604.00;4990132;28;99579;-72
2022/01/16 09:40:14;;;;;;;1999.90;999.90;;;;;;;-2.69;61.86;101605.19;5006807;28;97172;-72
2022/01/16 09:42:42;;;;;;;1999.90;999.90;;;;;;;-2.69;62.49;101615.59;5003097;28;97309;-74
2022/01/16 09:45:12;;;;;;;1999.90;999.90;;;;;;;-2.63;62.55;101611.81;5007399;28;97652;-72
2022/01/16 09:47:43;;;;;;;1999.90;999.90;;;;;;;-2.67;62.14;101609.72;5004744;28;97492;-72
2022/01/16 09:50:14;;;;;;;1999.90;999.90;;;;;;;-2.68;62.85;101618.31;5000790;28;96580;-73
2022/01/16 09:52:44;;;;;;;1999.90;999.90;;;;;;;-2.67;62.33;101619.25;5000152;28;96886;-72
2022/01/16 09:55:12;;;;;;;1999.90;999.90;;;;;;;-2.65;62.54;101631.59;5004478;28;98171;-70
2022/01/16 09:57:41;;;;;;;1999.90;999.90;;;;;;;-2.64;62.54;101623.03;4995584;28;97582;-73
2022/01/16 10:00:12;;;;;;;1999.90;999.90;;;;;;;-2.62;62.64;101621.47;5001834;28;97375;-72
2022/01/16 10:02:45;;;;;;;1999.90;999.90;;;;;;;-2.62;62.84;101616.25;4995106;28;96870;-72
2022/01/16 10:05:34;;;;;;;1999.90;999.90;;;;;;;-2.62;62.71;101616.25;4998245;28;99572;-72
2022/01/16 10:08:04;;;;;;;1999.90;999.90;;;;;;;-2.60;62.80;101611.19;5007242;27;98225;-73
2022/01/16 10:10:34;;;;;;;1999.90;999.90;;;;;;;-2.60;62.96;101608.56;4998895;28;96632;-71
2022/01/16 10:13:20;;;;;;;1999.90;999.90;;;;;;;-2.61;62.57;101615.47;4998756;28;97182;-72
2022/01/16 10:15:55;;;;;;;1999.90;999.90;;;;;;;-2.60;62.73;101608.56;5016326;27;98561;-73
2022/01/16 10:18:34;;;;;;;1999.90;999.90;;;;;;;-2.53;62.82;101611.84;4997269;28;97711;-69
2022/01/16 10:21:03;;;;;;;1999.90;999.90;;;;;;;-2.46;62.00;101616.81;4992094;28;98571;-70
2022/01/16 10:23:39;;;;;;;1999.90;999.90;;;;;;;-2.46;62.87;101613.28;4997395;28;98973;-70
2022/01/16 10:26:18;;;;;;;1999.90;999.90;;;;;;;-2.44;61.92;101628.28;4998563;28;97272;-71
2022/01/16 10:28:45;;;;;;;1999.90;999.90;;;;;;;-2.40;62.12;101622.50;5004758;28;97660;-70
2022/01/16 10:31:19;;;;;;;1999.90;999.90;;;;;;;-2.39;61.76;101626.97;5003055;28;96646;-71
2022/01/16 10:33:47;;;;;;;1999.90;999.90;;;;;;;-2.36;62.17;101622.00;4997595;28;97133;-71
2022/01/16 10:36:31;;;;;;;1999.90;999.90;;;;;;;-2.39;62.40;101603.50;4998052;28;99029;-71
2022/01/16 10:39:05;;;;;;;1999.90;999.90;;;;;;;-2.38;61.89;101613.13;5004317;28;98808;-69
2022/01/16 10:41:33;;;;;;;1999.90;999.90;;;;;;;-2.39;62.45;101613.94;4999221;28;97985;-70
2022/01/16 10:44:01;;;;;;;1999.90;999.90;;;;;;;-2.39;62.32;101618.22;5002561;28;97097;-70
2022/01/16 10:46:29;;;;;;;1999.90;999.90;;;;;;;-2.39;62.66;101621.75;4998951;28;97879;-69
2022/01/16 10:49:15;;;;;;;1999.90;999.90;;;;;;;-2.43;62.76;101626.56;4998161;28;98468;-71
2022/01/16 10:52:01;;;;;;;1999.90;999.90;;;;;;;-2.49;62.34;101639.97;4986919;28;96868;-73
2022/01/16 10:54:32;;;;;;;1999.90;999.90;;;;;;;-2.49;62.56;101628.66;5003686;28;97116;-70
2022/01/16 10:57:18;;;;;;;1999.90;999.90;;;;;;;-2.49;61.93;101628.66;4996792;28;100041;-70
2022/01/16 10:59:46;;;;;;;1999.90;999.90;;;;;;;-2.52;62.80;101642.31;4980818;28;98896;-72
2022/01/16 11:02:15;;;;;;;1999.90;999.90;;;;;;;-2.52;62.47;101634.50;4998135;28;97495;-69
2022/01/16 11:04:43;;;;;;;1999.90;999.90;;;;;;;-2.54;62.66;101643.88;5001501;28;97133;-70
2022/01/16 11:07:12;;;;;;;1999.90;999.90;;;;;;;-2.52;62.11;101650.13;4983774;28;98824;-70
2022/01/16 11:09:39;;;;;;;1999.90;999.90;;;;;;;-2.52;62.52;101644.91;4987151;28;100648;-71
2022/01/16 11:12:09;;;;;;;1999.90;999.90;;;;;;;-2.56;62.23;101641.94;4978832;28;97449;-72
2022/01/16 11:14:36;;;;;;;1999.90;999.90;;;;;;;-2.53;62.37;101652.63;4999145;28;96942;-70
2022/01/16 11:17:05;;;;;;;1999.90;999.90;;;;;;;-2.51;62.86;101651.94;5005432;28;98045;-71
2022/01/16 11:19:35;;;;;;;1999.90;999.90;;;;;;;-2.52;62.46;101647.53;4998401;28;99257;-72
2022/01/16 11:22:09;;;;;;;1999.90;999.90;;;;;;;-2.54;62.99;101649.09;5004166;28;97186;-70
2022/01/16 11:24:48;;;;;;;1999.90;999.90;;;;;;;-2.60;62.96;101640.72;5009002;28;97028;-72
2022/01/16 11:27:16;;;;;;;1999.90;999.90;;;;;;;-2.56;62.09;101652.34;4998332;28;97455;-73
2022/01/16 11:29:44;;;;;;;1999.90;999.90;;;;;;;-2.58;62.09;101636.56;5000039;28;98327;-73
2022/01/16 11:32:12;;;;;;;1999.90;999.90;;;;;;;-2.56;62.64;101636.72;5005378;28;96772;-73
2022/01/16 11:34:41;;;;;;;1999.90;999.90;;;;;;;-2.56;62.56;101624.59;4992106;28;96879;-72
2022/01/16 11:37:09;;;;;;;1999.90;999.90;;;;;;;-2.55;62.95;101622.91;5002873;28;99739;-72